Adner, Louisiana
Current Conditions -  °F | °C
As of 10:58 PM on Saturday 25 Oct 2014 (Local Time) from KBAD Reporting Station
Clear Clear  
Wind Chill: 66°   Ceiling: Unl
Heat Index: 66°   Visibility: 10mi
Dew Point: 63°   Wind: 5mph
Humidity: 89%   Direction: 150°SSE
Pressure: 30.07"   Gusts: NA
Location:  32.5391°N, 93.5257°W
Report Text: KBAD 260358Z AUTO 15004KT 10SM CLR 19/17 A3007 RMK AO2 SLP184 T01890170
Loading
Personal Weather Stations






























Interactive Weather Map
Tropical Storm Tracking
New forecast layout! Learn more

10-Day Weather Forecast

Advertisements
Track Severe Weather on mobile